Hall, MT (59837)

10:49 AM MDT on September 02, 2014 (GMT -0600)
goosetown 2 | Change Station
CLOSE
Current Station
Personal Weather Station
Location: Anaconda, MT
Elevation: 5240 ft
Nearby Weather Stations

Elev 5240 ft 46.13 °N, 112.94 °W | Updated 7 minutes ago

Clear
Clear
62.1 °F
Feels Like 62.1 °F
N
7.0
Wind Variable Wind from SSE
Gusts 14.0 mph

Today
High -- | Low -- °F
--% Chance of Precip.
Yesterday
High -- | Low -- °F
Precip. -- in
6:54 AM 8:09 PM
First Quarter, 53% visible
Pressure 29.94 in
Visibility 10.0 miles
Clouds Clear
Dew Point 39 °F
Humidity 43%
Rainfall 0.00 in
Snow Depth 1 in , 0 in , 2 in
UV 3 out of 12
Pollen 7.10 out of 12
Air Quality Not available.
Flu Activity Not available.
METAR KBTM 021553Z AUTO 00000KT 10SM CLR 11/03 A3002 RMK AO2 SLP138 T01060033 $

More Conditions Fewer Conditions

Pressure 29.94 in
Visibility 10.0 miles
Clouds Clear
Dew Point 39 °F
Humidity 43%
Rainfall 0.00 in
Snow Depth 1 in , 0 in , 2 in
UV 3 out of 12
Pollen 7.10 out of 12
Air Quality Not available.
Flu Activity Not available.
METAR KBTM 021553Z AUTO 00000KT 10SM CLR 11/03 A3002 RMK AO2 SLP138 T01060033 $

More Conditions Fewer Conditions

10-Day Weather Forecast

Almanac

Astronomy

Sep. 02, 2014 Rise Set
Actual Time 6:54 AM MDT 8:09 PM MDT
Civil Twilight 6:23 AM MDT 8:40 PM MDT
Nautical Twilight 5:46 AM MDT 9:18 PM MDT
Astronomical Twilight 5:06 AM MDT 9:57 PM MDT
Moon 3:07 PM MDT No Moon Set
Length of Visible Light 14h 17m
Length of Day
13h 15m
Tomorrow will be 3m 11s shorter.
First Quarter, 53% of the Moon is Illuminated
Today
First Quarter
Sep 8
Full
Sep 15
Last Quarter
Sep 24
New
Oct 1
First Quarter

Today's Extremes

State Highs State Lows

Community

WunderPhotos

Upload Photos

1,749,716 photos uploaded!

WunderBlogs® & News

Nearby

Snow Depth

Station Depth Elevation
Black Pine 1 in 7210 ft
Combination 0 in 5600 ft
Warm Springs 2 in 7800 ft
Peterson Meadows 0 in 7200 ft
Barker Lakes 0 in 8250 ft

Earthquake Activity

City Distance Mag. Time & Date
No recent earthquake activity has been reported nearby.
Minimum magnitude displayed is 2.5.

Coastal Water Temperatures

Place Temperature
No Stations Reporting

Nearby Weather Stations